Terminal Aerodrome Forecast
Issued by NWS Upton, NY

Home | Current Version | Previous Version | Text Only | Print | Product List | Glossary On
Versions: 1 2 3 4 5 6 7 8 9 10 11 12 13 14 15 16 17 18 19 20 21 22 23 24 25 26 27 28 29 30 31
000
FTUS41 KOKX 262150 AAC
TAFBDR
TAF AMD
KBDR 262150Z 2622/2718 21007KT 1SM BR OVC004 WS015/21065KT
      TEMPO 2622/2623 SCT004 OVC015
     FM270100 23007KT 1SM -DZ BR OVC004
     FM270300 34005KT 4SM -RA BR OVC004
     FM270700 34006KT 4SM -RA BR OVC015=

USA.gov is the U.S. government's official web portal to all federal, state and local government web resources and services.